エドモントン の空港の天気 - METARとTAF

エドモントン国際空港 ( CYEG / YEG ) - カナダ アルバータ州Edmonton Capital Region
飛行場実況気象(Metar)
観測時間05/28 05:00 MDT (05/28 11:00 UTC)
風向・風速西 5m/s
視程10km以上
天気現象
少しの雲 雲底高度 2440m
全天の4割程度の雲 雲底高度 4570m
全天の8割程度の雲 雲底高度 7620m
気温7℃
湿度87%
気圧1002hPa
METARCYEG 281100Z 27009KT 20SM FEW080 SCT150 BKN250 07/05 A2957 RMK AC1AC3CI2 LWR AC TR ACC ASOCTD DIST N SLP020 DENSITY ALT 2400FT
過去の天気等 Google飛行場航空写真 Wunderground天気予報

過去48時間のMETAR

飛行場予報(TAF)
発表時間: 5/28 02:40 MDT (5/28 08:40 UTC)
予報対象時間: 28日3時 MDT ~ 29日0時 MDT
風向・風速西 4m/s
視程10km以上
少しの雲 雲底高度 7620m
28日7時 MDT ~ 28日8時 MDT に徐々に
風向・風速西北西 6m/s
28日8時 MDT から
風向・風速西北西 6m/s 瞬間風速 11m/s
視程10km以上
なし
28日13時 MDT から
風向・風速西北西 8m/s
視程10km以上
全天の4割程度の雲 雲底高度 2440m
28日17時 MDT から
風向・風速西北西 6m/s
視程10km以上
全天の4割程度の雲 雲底高度 3050m
28日17時 MDT ~ 28日19時 MDT に一時的に
全天の8割程度の雲 雲底高度 3050m
28日21時 MDT から
風向・風速西 4m/s
視程10km以上
なし
28日23時 MDT ~ 28日24時 MDT に徐々に
風向・風速西 2m/s
TAF CYEG 280840Z 2809/2906 27008KT P6SM FEW250
BECMG 2813/2814 30012KT
FM281400 30012G22KT P6SM SKC
FM281900 30015KT P6SM SCT080
FM282300 30012KT P6SM SCT100
TEMPO 2823/2901 BKN100
FM290300 27008KT P6SM SKC
BECMG 2905/2906 27004KT RMK NXT FCST BY 281200Z